• Join FlightAware (Why Join?)
  • Login
  • US Flag 
02:55AM EST


 

Airport Tracker/Info


-or-


 

Live Flight TrackerFlight Track Log ✈ AMF494 ✈ 01-Mar-2008 ✈ KPDX - KOAK

Flight Track Log - Related Links

Times and Time Zones

All times are in EST time to prevent confusion due to time zone crossing. See the AMF494 flight status page for this flight to view local times or setup timezone preferences in your user account.

Time Position Orientation Groundspeed Altitude Reporting Facility
EST Latitude Longitude Course Direction KTS MPH feet Rate Location/Type
03:09AM 45.2167 -122.6000 155° Southeast 226 260 15,000  Level
03:10AM 45.1667 -122.5670 167° South 219 252 16,100 1,020 Climbing
03:11AM 45.1167 -122.5500 161° South 214 246 17,100 1,020 Climbing
03:12AM 45.0500 -122.5170 166° South 214 246 18,200 900 Climbing
03:13AM 45.0000 -122.5000 155° Southeast 208 239 19,000 360 Climbing
03:14AM 44.9500 -122.4670 154° Southeast 202 232 19,000  Level
03:15AM 44.9000 -122.4330 161° South 208 239 19,000  Level
03:16AM 44.8333 -122.4000 161° South 214 246 19,000  Level
03:17AM 44.7667 -122.3670 166° South 214 246 19,000  Level
03:18AM 44.7167 -122.3500 161° South 219 252 19,000  Level
03:19AM 44.6500 -122.3170 154° Southeast 224 258 19,000  Level
03:20AM 44.6000 -122.2830 170° South 224 258 19,000  Level
03:21AM 44.5333 -122.2670 166° South 224 258 19,000  Level
03:22AM 44.4833 -122.2500 170° South 219 252 19,000  Level
03:23AM 44.4167 -122.2330 170° South 219 252 19,000  Level
03:24AM 44.3500 -122.2170 180° South 219 252 19,000  Level
03:25AM 44.3000 -122.2170 180° South 219 252 19,000  Level
03:26AM 44.2333 -122.2170 180° South 219 252 19,000  Level
03:27AM 44.1667 -122.2170 180° South 219 252 19,000  Level
03:28AM 44.1167 -122.2170 170° South 214 246 19,000  Level
03:29AM 44.0500 -122.2000 180° South 214 246 19,000  Level
03:30AM 44.0000 -122.2000 180° South 214 246 19,000  Level
03:31AM 43.9333 -122.2000 170° South 214 246 19,000  Level
03:32AM 43.8667 -122.1830 180° South 214 246 19,000  Level
03:33AM 43.8167 -122.1830 170° South 214 246 19,000  Level
03:34AM 43.7500 -122.1670 180° South 219 252 19,000  Level
03:35AM 43.6833 -122.1670 180° South 219 252 19,000  Level
03:36AM 43.6167 -122.1670 166° South 219 252 19,000  Level
03:37AM 43.5667 -122.1500 180° South 224 258 19,000  Level
03:38AM 43.5000 -122.1500 170° South 224 258 19,000  Level
03:39AM 43.4333 -122.1330 180° South 224 258 19,000  Level
03:40AM 43.3833 -122.1330 170° South 224 258 19,000  Level
03:41AM 43.3167 -122.1170 180° South 219 252 19,000  Level
03:42AM 43.2500 -122.1170 180° South 231 266 19,000  Level
03:43AM 43.1833 -122.1170 169° South 236 272 19,000  Level
03:44AM 43.1167 -122.1000 169° South 236 272 19,000  Level
03:45AM 43.0500 -122.0830 180° South 236 272 19,000  Level
03:46AM 42.9833 -122.0830 167° South 236 272 19,000  Level
03:47AM 42.9333 -122.0670 169° South 236 272 19,000  Level
03:48AM 42.8667 -122.0500 166° South 230 265 19,000  Level
03:49AM 42.8167 -122.0330 180° South 225 259 19,000  Level
03:50AM 42.7500 -122.0330 170° South 225 259 19,000  Level
03:51AM 42.6833 -122.0170 180° South 225 259 19,000  Level
03:52AM 42.6333 -122.0170 180° South 225 259 19,000  Level
03:53AM 42.5667 -122.0170 180° South 230 265 19,000  Level
03:54AM 42.5000 -122.0170 180° South 230 265 19,000  Level
03:55AM 42.4333 -122.0170 180° South 230 265 19,000  Level
03:56AM 42.3833 -122.0170 180° South 225 259 19,000  Level
03:57AM 42.3167 -122.0170 180° South 220 253 19,000  Level
03:58AM 42.2500 -122.0170 180° South 220 253 19,000  Level
03:59AM 42.2000 -122.0170 180° South 215 247 19,000  Level
04:00AM 42.1333 -122.0170 180° South 215 247 19,000  Level
04:01AM 42.0833 -122.0170 180° South 215 247 19,000  Level
04:02AM 42.0167 -122.0170 180° South 220 253 19,000  Level
04:03AM 41.9500 -122.0170 166° South 220 253 19,000  Level
04:04AM 41.9000 -122.0000 180° South 225 259 19,000  Level
04:05AM 41.8333 -122.0000 191° South 230 265 19,000  Level
04:06AM 41.7667 -122.0170 169° South 235 270 19,000  Level
04:07AM 41.7000 -122.0000 180° South 230 265 19,000  Level
04:08AM 41.6500 -122.0000 180° South 224 258 19,000  Level
04:08AM 41.6000 -122.0000 180° South 219 252 19,000  Level
04:09AM 41.5500 -122.0000 180° South 219 252 19,000  Level
04:10AM 41.4833 -122.0000 180° South 219 252 19,000  Level
04:11AM 41.4167 -122.0000 180° South 224 258 19,000  Level
04:12AM 41.3500 -122.0000 166° South 224 258 19,000  Level
04:13AM 41.3000 -121.9830 166° South 219 252 19,000  Level
04:14AM 41.2500 -121.9670 180° South 219 252 19,000  Level
04:15AM 41.1833 -121.9670 180° South 219 252 19,000  Level
04:16AM 41.1333 -121.9670 190° South 213 245 19,000  Level
04:17AM 41.0667 -121.9830 180° South 213 245 19,000  Level
04:18AM 41.0167 -121.9830 180° South 208 239 19,000  Level
04:19AM 40.9667 -121.9830 180° South 208 239 19,000  Level
04:20AM 40.9000 -121.9830 194° South 203 234 19,000  Level
04:21AM 40.8500 -122.0000 180° South 203 234 19,000  Level
04:22AM 40.8000 -122.0000 180° South 203 234 19,000  Level
04:23AM 40.7333 -122.0000 180° South 198 228 19,000  Level
04:24AM 40.6833 -122.0000 180° South 198 228 19,000  Level
04:25AM 40.6167 -122.0000 180° South 198 228 19,000  Level
04:26AM 40.5667 -122.0000 180° South 209 241 19,000  Level
04:27AM 40.5000 -122.0000 180° South 209 241 19,000  Level
04:28AM 40.4500 -122.0000 191° South 214 246 19,000  Level
04:29AM 40.3833 -122.0170 180° South 214 246 19,000  Level
04:30AM 40.3333 -122.0170 180° South 214 246 19,000  Level
04:31AM 40.2667 -122.0170 180° South 214 246 19,000  Level
04:32AM 40.2000 -122.0170 180° South 214 246 19,000  Level
04:33AM 40.1500 -122.0170 180° South 214 246 19,000  Level
04:34AM 40.0833 -122.0170 194° South 214 246 19,000  Level
04:35AM 40.0333 -122.0330 180° South 214 246 19,000  Level
04:36AM 39.9667 -122.0330 180° South 214 246 19,000  Level
04:37AM 39.9000 -122.0330 180° South 214 246 19,000  Level
04:38AM 39.8500 -122.0330 180° South 214 246 19,000  Level
04:39AM 39.7833 -122.0330 195° South 219 252 19,000  Level
04:40AM 39.7333 -122.0500 180° South 219 252 19,000  Level
04:41AM 39.6667 -122.0500 191° South 219 252 19,000  Level
04:42AM 39.6000 -122.0670 180° South 219 252 19,000  Level
04:43AM 39.5500 -122.0670 180° South 219 252 19,000  Level
04:44AM 39.4833 -122.0670 191° South 219 252 19,000  Level
04:45AM 39.4167 -122.0830 180° South 219 252 19,000  Level
04:46AM 39.3500 -122.0830 195° South 219 252 19,000  Level
04:47AM 39.3000 -122.1000 180° South 219 252 19,000  Level
04:48AM 39.2333 -122.1000 191° South 226 260 19,000  Level
04:49AM 39.1667 -122.1170 180° South 226 260 19,000  Level
04:50AM 39.1167 -122.1170 191° South 231 266 19,000  Level
04:51AM 39.0500 -122.1330 180° South 236 272 19,000  Level
04:52AM 38.9833 -122.1330 189° South 236 272 19,000 -600 Level
04:53AM 38.9000 -122.1500 191° South 236 272 17,900 -1,260 Descending
04:54AM 38.8333 -122.1670 191° South 248 285 16,500 -1,440 Descending
04:55AM 38.7667 -122.1830 180° South 263 303 15,100 -1,380 Descending
04:56AM 38.6833 -122.1830 180° South 268 308 13,800 -1,260 Descending
04:57AM 38.6167 -122.1830 169° South 262 302 12,600 -1,260 Descending
04:58AM 38.5500 -122.1670 180° South 254 292 11,300 -1,380 Descending
04:59AM 38.4833 -122.1670 180° South 254 292 9,900 -1,140 Descending
05:00AM 38.4167 -122.1670 191° South 254 292 9,100 -1,080 Descending
05:01AM 38.3500 -122.1830 180° South 249 287 7,800 -1,440 Descending
05:02AM 38.3167 -122.1830 202° Southwest 244 281 7,100 -1,200 Descending
05:02AM 38.2833 -122.2000 180° South 249 287 6,600 -1,080 Descending
05:03AM 38.2500 -122.2000 180° South 240 276 5,900 -1,200 Descending
05:03AM 38.2167 -122.2000 360° North 249 287 5,400  Descending
05:04AM 38.2500 -122.2000 188° South 240 276 5,900 13,560 Climbing
05:04AM 38.1500 -122.2170 North 249 287 19,000  Climbing
05:05AM 38.2500 -122.2000 189° South 240 276 5,900  Descending
05:05AM 38.0833 -122.2330 143° Southeast 243 280 19,000 -900 Climbing
05:06AM 38.0667 -122.2170 180° South 209 241 5,000  Descending
05:06AM 38.0333 -122.2170 141° Southeast 224 258 19,000  Climbing
05:07AM 38.0167 -122.2000 180° South 203 234 5,000  Descending
05:07AM 37.9667 -122.2000 90° East 212 244 19,000  Climbing
05:08AM 37.9667 -122.1830 142° Southeast 212 244 5,000  Descending
05:08AM 37.9333 -122.1500 141° Southeast 199 229 19,000  Climbing
05:09AM 37.9167 -122.1330 159° South 204 235 5,000  Descending
05:09AM 37.8833 -122.1170 122° Southeast 199 229 19,000  Climbing
05:10AM 37.8667 -122.0830 143° Southeast 192 221 5,000  Descending
05:10AM 37.8500 -122.0670 141° Southeast 199 229 19,000  Climbing
05:11AM 37.8333 -122.0500 142° Southeast 170 196 5,000  Descending
05:11AM 37.8000 -122.0170 90° East 188 216 19,000 60 Climbing
05:12AM 37.8000 -122.0000 158° South 180 207 5,100  Descending
05:12AM 37.7667 -121.9830 143° Southeast 183 211 19,000 -120 Climbing
05:13AM 37.7500 -121.9670 141° Southeast 177 204 5,000  Descending
05:13AM 37.7333 -121.9500 141° Southeast 183 211 19,000  Climbing
05:14AM 37.7167 -121.9330 123° Southeast 172 198 5,000  Descending
05:14AM 37.7000 -121.9000 141° Southeast 183 211 19,000  Climbing
05:15AM 37.6833 -121.8830 143° Southeast 166 191 5,000  Descending
05:15AM 37.6667 -121.8670 217° Southwest 178 205 19,000 -600 Climbing
05:16AM 37.6500 -121.8830 219° Southwest 171 197 4,400 -15,000 Descending
05:16AM 37.6333 -121.9000 303° West 111 128 4,000 -600 Descending
05:17AM 37.6500 -121.9330 270° West 131 151 3,800 -600 Descending
05:18AM 37.6500 -121.9670 270° West 107 123 3,300 -660 Descending